Time;durP1;ratioP1;P1;durP2;ratioP2;P2;SDS_P1;SDS_P2;PMS_P1;PMS_P2;Temp;Humidity;BMP_temperature;BMP_pressure;BME280_temperature;BME280_humidity;BME280_pressure;Samples;Min_cycle;Max_cycle;Signal;HPM_P1;HPM_P2
2022/12/05 00:01:29;;;;;;;;;59.00;46.33;;;;;;;;5088139;28;11570;-90
2022/12/05 00:04:00;;;;;;;;;45.00;41.25;;;;;;;;5088028;28;11650;-89
2022/12/05 00:06:29;;;;;;;;;72.00;53.00;;;;;;;;5087040;28;11658;-88
2022/12/05 00:08:57;;;;;;;;;64.67;51.67;;;;;;;;5087091;28;11602;-88
2022/12/05 00:11:26;;;;;;;;;43.25;42.00;;;;;;;;5087346;28;11523;-89
2022/12/05 00:13:55;;;;;;;;;58.00;45.50;;;;;;;;5078601;28;11637;-88
2022/12/05 00:16:25;;;;;;;;;54.00;45.00;;;;;;;;5084993;28;11585;-88
2022/12/05 00:18:53;;;;;;;;;25.25;23.75;;;;;;;;5087137;28;12372;-88
2022/12/05 00:21:23;;;;;;;;;59.67;51.33;;;;;;;;5086577;28;11510;-88
2022/12/05 00:23:52;;;;;;;;;60.67;49.67;;;;;;;;5086082;28;11754;-88
2022/12/05 00:26:20;;;;;;;;;58.50;49.00;;;;;;;;5080825;28;11582;-88
2022/12/05 00:28:48;;;;;;;;;47.50;42.00;;;;;;;;5079685;28;11677;-88
2022/12/05 00:31:17;;;;;;;;;46.25;39.25;;;;;;;;5080716;28;11590;-88
2022/12/05 00:33:47;;;;;;;;;43.50;41.00;;;;;;;;5086563;28;11549;-88
2022/12/05 00:36:17;;;;;;;;;57.50;48.75;;;;;;;;5086053;28;11569;-90
2022/12/05 00:38:45;;;;;;;;;58.00;47.50;;;;;;;;5084857;28;11589;-90
2022/12/05 00:41:15;;;;;;;;;58.25;43.00;;;;;;;;5086378;28;11564;-90
2022/12/05 00:43:45;;;;;;;;;50.75;42.50;;;;;;;;5084601;28;11591;-90
2022/12/05 00:46:15;;;;;;;;;59.25;45.50;;;;;;;;5086565;28;11531;-90
2022/12/05 00:48:48;;;;;;;;;55.00;42.75;;;;;;;;5087553;28;11561;-90
2022/12/05 00:51:19;;;;;;;;;53.50;42.00;;;;;;;;5084824;28;11539;-88
2022/12/05 00:53:48;;;;;;;;;54.75;39.25;;;;;;;;5087748;28;11588;-89
2022/12/05 00:56:20;;;;;;;;;54.00;46.50;;;;;;;;5086186;28;12395;-89
2022/12/05 00:58:49;;;;;;;;;55.75;42.00;;;;;;;;5087316;28;11548;-88
2022/12/05 01:01:18;;;;;;;;;60.25;47.50;;;;;;;;5082623;28;11570;-89
2022/12/05 01:03:54;;;;;;;;;60.25;47.50;;;;;;;;5088426;28;11576;-90
2022/12/05 01:06:23;;;;;;;;;57.75;47.00;;;;;;;;5085065;28;11567;-90
2022/12/05 01:08:54;;;;;;;;;49.00;41.75;;;;;;;;5085821;28;11636;-89
2022/12/05 01:11:23;;;;;;;;;44.25;39.25;;;;;;;;5086632;28;11562;-89
2022/12/05 01:13:51;;;;;;;;;52.25;42.00;;;;;;;;5086780;28;11758;-88
2022/12/05 01:16:22;;;;;;;;;49.75;38.50;;;;;;;;5087215;28;12305;-87
2022/12/05 01:18:52;;;;;;;;;53.00;45.50;;;;;;;;5085553;28;11559;-88
2022/12/05 01:21:20;;;;;;;;;52.25;44.75;;;;;;;;5087939;28;11726;-88
2022/12/05 01:23:49;;;;;;;;;55.00;45.25;;;;;;;;5085314;28;11557;-86
2022/12/05 01:26:22;;;;;;;;;45.25;41.25;;;;;;;;5086892;28;11575;-88
2022/12/05 01:28:51;;;;;;;;;39.25;36.75;;;;;;;;5090899;28;11582;-88
2022/12/05 01:31:23;;;;;;;;;56.50;46.00;;;;;;;;5087838;28;11568;-89
2022/12/05 01:33:54;;;;;;;;;45.25;41.25;;;;;;;;5086817;28;11692;-88
2022/12/05 01:36:23;;;;;;;;;52.67;44.33;;;;;;;;5090732;28;11640;-89
2022/12/05 01:38:51;;;;;;;;;52.25;38.75;;;;;;;;5087843;28;11638;-87
2022/12/05 01:41:21;;;;;;;;;55.75;42.75;;;;;;;;5087656;28;11552;-87
2022/12/05 01:43:56;;;;;;;;;53.50;42.75;;;;;;;;5083855;28;11554;-87
2022/12/05 01:46:27;;;;;;;;;55.00;46.00;;;;;;;;5078969;28;11651;-88
2022/12/05 01:49:02;;;;;;;;;59.00;44.00;;;;;;;;5088127;28;11541;-88
2022/12/05 01:51:32;;;;;;;;;55.67;42.00;;;;;;;;5091756;28;11550;-87
2022/12/05 01:54:23;;;;;;;;;59.67;47.33;;;;;;;;5093795;28;11545;-88
2022/12/05 01:56:56;;;;;;;;;40.75;37.25;;;;;;;;5083868;28;11576;-87
2022/12/05 01:59:25;;;;;;;;;53.00;43.25;;;;;;;;5082704;28;11557;-89
2022/12/05 02:01:53;;;;;;;;;55.25;41.75;;;;;;;;5076081;28;11556;-88
2022/12/05 02:04:23;;;;;;;;;53.25;41.75;;;;;;;;5081775;28;11530;-89
2022/12/05 02:06:51;;;;;;;;;49.00;42.00;;;;;;;;5082687;28;11735;-88
2022/12/05 02:09:20;;;;;;;;;59.25;46.00;;;;;;;;5084171;28;11674;-88
2022/12/05 02:11:52;;;;;;;;;49.00;42.25;;;;;;;;5085414;28;11569;-88
2022/12/05 02:14:26;;;;;;;;;43.00;40.25;;;;;;;;5096580;28;11686;-88
2022/12/05 02:17:02;;;;;;;;;39.25;36.00;;;;;;;;5076707;28;11616;-88
2022/12/05 02:20:05;;;;;;;;;40.00;38.25;;;;;;;;5092928;28;11557;-88
2022/12/05 02:23:05;;;;;;;;;51.75;41.50;;;;;;;;5081273;28;11671;-88
2022/12/05 02:26:01;;;;;;;;;46.00;40.25;;;;;;;;5083531;28;11568;-88
2022/12/05 02:28:52;;;;;;;;;37.75;34.25;;;;;;;;5083779;28;11724;-88
2022/12/05 02:31:29;;;;;;;;;39.75;35.75;;;;;;;;5075990;28;12359;-88
2022/12/05 02:34:03;;;;;;;;;39.00;34.25;;;;;;;;5083444;28;11635;-87
2022/12/05 02:36:36;;;;;;;;;48.25;42.00;;;;;;;;5085114;28;11678;-88
2022/12/05 02:39:15;;;;;;;;;50.00;45.00;;;;;;;;5083205;28;11584;-87
2022/12/05 02:41:49;;;;;;;;;43.25;41.00;;;;;;;;5084134;28;11536;-88
2022/12/05 02:44:19;;;;;;;;;35.00;28.75;;;;;;;;5073683;28;11642;-87
2022/12/05 02:46:51;;;;;;;;;38.75;33.00;;;;;;;;5086300;28;11586;-87
2022/12/05 02:49:21;;;;;;;;;43.75;38.50;;;;;;;;5081116;28;11549;-87
2022/12/05 02:51:52;;;;;;;;;42.50;40.00;;;;;;;;5096881;28;11708;-88
2022/12/05 02:54:24;;;;;;;;;41.50;38.75;;;;;;;;5082262;28;11716;-88
2022/12/05 02:56:53;;;;;;;;;35.00;33.25;;;;;;;;5083980;28;11573;-88
2022/12/05 02:59:21;;;;;;;;;46.25;38.25;;;;;;;;5086975;28;11683;-89
2022/12/05 03:01:51;;;;;;;;;46.75;41.75;;;;;;;;5086181;28;12406;-88
2022/12/05 03:04:21;;;;;;;;;36.00;30.00;;;;;;;;5087813;28;11572;-87
2022/12/05 03:06:53;;;;;;;;;45.00;38.75;;;;;;;;5089124;28;11553;-88
2022/12/05 03:09:23;;;;;;;;;43.75;37.00;;;;;;;;5081698;28;11534;-89
2022/12/05 03:11:53;;;;;;;;;52.75;41.25;;;;;;;;5087459;28;11674;-88
2022/12/05 03:14:24;;;;;;;;;27.00;26.25;;;;;;;;5081647;28;11672;-89
2022/12/05 03:16:55;;;;;;;;;37.75;31.50;;;;;;;;5089739;28;11603;-88
2022/12/05 03:19:27;;;;;;;;;40.50;34.00;;;;;;;;5088784;28;11671;-89
2022/12/05 03:21:58;;;;;;;;;44.75;36.75;;;;;;;;5088563;28;11681;-89
2022/12/05 03:24:27;;;;;;;;;38.75;31.50;;;;;;;;5088530;28;11580;-89
2022/12/05 03:27:02;;;;;;;;;34.50;29.00;;;;;;;;5088704;28;11618;-87
2022/12/05 03:29:34;;;;;;;;;34.75;31.25;;;;;;;;5085708;28;11614;-88
2022/12/05 03:32:09;;;;;;;;;43.00;36.75;;;;;;;;5087332;28;11590;-88
2022/12/05 03:34:56;;;;;;;;;37.50;35.00;;;;;;;;5086826;28;11644;-87
2022/12/05 03:37:29;;;;;;;;;47.25;40.00;;;;;;;;5089834;28;11571;-89
2022/12/05 03:40:05;;;;;;;;;43.75;38.00;;;;;;;;5082877;28;11583;-88
2022/12/05 03:42:36;;;;;;;;;38.00;34.33;;;;;;;;5088170;28;11581;-88
2022/12/05 03:45:08;;;;;;;;;50.33;40.33;;;;;;;;5088002;28;11554;-88
2022/12/05 03:47:44;;;;;;;;;46.00;40.00;;;;;;;;5087572;28;11559;-88
2022/12/05 03:50:17;;;;;;;;;45.00;41.00;;;;;;;;5079810;28;11571;-87
2022/12/05 03:52:47;;;;;;;;;41.33;35.33;;;;;;;;5087326;28;11550;-88
2022/12/05 03:55:16;;;;;;;;;49.33;41.33;;;;;;;;5087705;28;11571;-87
2022/12/05 03:57:46;;;;;;;;;45.00;42.33;;;;;;;;5081251;28;12073;-87
2022/12/05 04:00:18;;;;;;;;;52.33;44.00;;;;;;;;5087317;28;8863;-87
2022/12/05 04:02:51;;;;;;;;;60.00;48.00;;;;;;;;5080499;28;11567;-88
2022/12/05 04:05:23;;;;;;;;;60.67;45.67;;;;;;;;5085538;28;11568;-88
2022/12/05 04:07:56;;;;;;;;;55.33;42.67;;;;;;;;5083720;28;11721;-89
2022/12/05 04:10:26;;;;;;;;;48.67;42.33;;;;;;;;5086207;28;11687;-88
2022/12/05 04:12:56;;;;;;;;;50.00;40.33;;;;;;;;5086015;28;11602;-88
2022/12/05 04:15:27;;;;;;;;;42.67;37.67;;;;;;;;5087050;28;11532;-88
2022/12/05 04:17:58;;;;;;;;;45.67;42.67;;;;;;;;5087210;28;11642;-88
2022/12/05 04:23:15;;;;;;;;;46.67;40.33;;;;;;;;5085068;28;11516;-88
2022/12/05 04:25:54;;;;;;;;;57.67;44.33;;;;;;;;5081325;28;11642;-88
2022/12/05 04:28:28;;;;;;;;;44.33;37.33;;;;;;;;5086247;28;11668;-90
2022/12/05 04:31:02;;;;;;;;;41.00;37.67;;;;;;;;5087671;28;11599;-88
2022/12/05 04:33:35;;;;;;;;;44.33;37.33;;;;;;;;5086256;28;11670;-88
2022/12/05 04:36:08;;;;;;;;;45.33;40.67;;;;;;;;5086088;28;11567;-88
2022/12/05 04:38:41;;;;;;;;;43.67;41.33;;;;;;;;5085495;28;8840;-88
2022/12/05 04:41:13;;;;;;;;;54.33;43.67;;;;;;;;5085529;28;11667;-89
2022/12/05 04:43:42;;;;;;;;;40.67;40.00;;;;;;;;5086373;28;8860;-88
2022/12/05 04:46:13;;;;;;;;;44.00;41.33;;;;;;;;5086299;28;11557;-88
2022/12/05 04:48:48;;;;;;;;;47.33;44.33;;;;;;;;5080491;28;11541;-89
2022/12/05 04:51:21;;;;;;;;;49.33;43.33;;;;;;;;5083546;28;8836;-89
2022/12/05 04:53:52;;;;;;;;;52.00;44.00;;;;;;;;5077289;28;11606;-89
2022/12/05 04:56:23;;;;;;;;;54.67;45.67;;;;;;;;5079058;28;11572;-90
2022/12/05 04:58:50;;;;;;;;;42.00;38.67;;;;;;;;5077864;28;11674;-89
2022/12/05 05:01:33;;;;;;;;;51.33;42.33;;;;;;;;5091518;28;11555;-89
2022/12/05 05:04:07;;;;;;;;;57.00;48.33;;;;;;;;5091277;28;11597;-90
2022/12/05 05:06:37;;;;;;;;;59.00;42.00;;;;;;;;5079950;28;11574;-89
2022/12/05 05:09:05;;;;;;;;;45.33;39.67;;;;;;;;5086332;28;11589;-89
2022/12/05 05:11:35;;;;;;;;;58.67;45.67;;;;;;;;5084828;28;11575;-88
2022/12/05 05:14:03;;;;;;;;;47.00;37.67;;;;;;;;5086903;28;11624;-88
2022/12/05 05:16:34;;;;;;;;;47.00;41.33;;;;;;;;5077696;28;11693;-89
2022/12/05 05:19:03;;;;;;;;;45.00;39.00;;;;;;;;5085900;28;11679;-88
2022/12/05 05:21:33;;;;;;;;;55.33;45.00;;;;;;;;5085256;28;11536;-88
2022/12/05 05:24:01;;;;;;;;;48.33;44.00;;;;;;;;5086242;28;11640;-88
2022/12/05 05:26:30;;;;;;;;;46.33;42.33;;;;;;;;5079093;28;8861;-88
2022/12/05 05:29:10;;;;;;;;;44.00;39.67;;;;;;;;5079603;28;8844;-89
2022/12/05 05:31:43;;;;;;;;;37.67;35.33;;;;;;;;5090787;28;11559;-89
2022/12/05 05:34:14;;;;;;;;;6.00;4.00;;;;;;;;5088699;28;8876;-84
2022/12/05 05:36:46;;;;;;;;;49.33;41.33;;;;;;;;5085457;28;11651;-84
2022/12/05 05:39:21;;;;;;;;;38.00;33.00;;;;;;;;5084221;28;8871;-86
2022/12/05 05:42:08;;;;;;;;;41.00;38.00;;;;;;;;5088714;28;11618;-84
2022/12/05 05:44:39;;;;;;;;;36.33;29.67;;;;;;;;5083780;28;11548;-84
2022/12/05 05:47:10;;;;;;;;;44.00;39.33;;;;;;;;5090786;28;11576;-89
2022/12/05 05:49:44;;;;;;;;;49.00;40.67;;;;;;;;5094526;28;11597;-89
2022/12/05 05:52:17;;;;;;;;;52.33;42.67;;;;;;;;5085704;28;11599;-90
2022/12/05 05:54:49;;;;;;;;;41.33;37.00;;;;;;;;5088870;28;11586;-88
2022/12/05 05:57:28;;;;;;;;;44.67;41.67;;;;;;;;5096682;28;11546;-91
2022/12/05 06:00:00;;;;;;;;;43.00;39.00;;;;;;;;5096609;28;11594;-88
2022/12/05 06:02:37;;;;;;;;;48.67;42.67;;;;;;;;5092859;28;9559;-88
2022/12/05 06:05:07;;;;;;;;;47.00;36.67;;;;;;;;5089189;28;12423;-89
2022/12/05 06:07:51;;;;;;;;;;;;;;;;;;;;;
2022/12/05 06:10:22;;;;;;;;;48.67;41.00;;;;;;;;5091365;28;8840;-88
2022/12/05 06:12:52;;;;;;;;;41.67;39.67;;;;;;;;5085459;28;11611;-88
2022/12/05 06:15:21;;;;;;;;;47.67;40.67;;;;;;;;5086587;28;8844;-88
2022/12/05 06:17:49;;;;;;;;;54.67;44.33;;;;;;;;5089081;28;11564;-89
2022/12/05 06:20:23;;;;;;;;;35.33;33.33;;;;;;;;5080855;28;11619;-88
2022/12/05 06:22:58;;;;;;;;;55.00;43.67;;;;;;;;5088656;28;8847;-89
2022/12/05 06:25:26;;;;;;;;;47.67;44.00;;;;;;;;5091334;28;8840;-90
2022/12/05 06:27:54;;;;;;;;;42.00;41.67;;;;;;;;5086140;28;8887;-89
2022/12/05 06:30:22;;;;;;;;;51.00;44.00;;;;;;;;5085869;28;8837;-89
2022/12/05 06:32:54;;;;;;;;;48.00;41.67;;;;;;;;5088234;28;8920;-89
2022/12/05 06:35:23;;;;;;;;;49.33;39.00;;;;;;;;5088640;28;8872;-89
2022/12/05 06:37:57;;;;;;;;;55.67;47.00;;;;;;;;5091220;28;8828;-89
2022/12/05 06:40:25;;;;;;;;;51.67;41.00;;;;;;;;5088894;28;8833;-87
2022/12/05 06:42:54;;;;;;;;;56.67;44.00;;;;;;;;5089067;28;8856;-86
2022/12/05 06:45:23;;;;;;;;;56.00;44.00;;;;;;;;5093684;28;8860;-87
2022/12/05 06:47:52;;;;;;;;;57.00;48.00;;;;;;;;5092429;28;8867;-83
2022/12/05 06:50:20;;;;;;;;;48.67;43.33;;;;;;;;5093127;28;8843;-83
2022/12/05 06:52:51;;;;;;;;;58.33;47.00;;;;;;;;5080963;28;9601;-73
2022/12/05 06:55:27;;;;;;;;;65.33;49.67;;;;;;;;5089984;28;8856;-75
2022/12/05 06:57:55;;;;;;;;;52.00;45.33;;;;;;;;5091685;28;8844;-76
2022/12/05 07:03:38;;;;;;;;;50.00;43.33;;;;;;;;5086692;28;8816;-74
2022/12/05 07:06:22;;;;;;;;;51.33;43.67;;;;;;;;5081800;28;8863;-74
2022/12/05 07:08:51;;;;;;;;;55.67;42.00;;;;;;;;5086060;28;8860;-74
2022/12/05 07:11:19;;;;;;;;;48.67;39.33;;;;;;;;5085278;28;9660;-77
2022/12/05 07:13:48;;;;;;;;;62.33;45.33;;;;;;;;5084761;28;8943;-77
2022/12/05 07:16:15;;;;;;;;;54.67;45.00;;;;;;;;5087412;28;8967;-76
2022/12/05 07:18:43;;;;;;;;;60.00;48.33;;;;;;;;5083970;28;12471;-75
2022/12/05 07:21:14;;;;;;;;;50.00;38.67;;;;;;;;5078115;28;8904;-75
2022/12/05 07:23:42;;;;;;;;;45.33;36.67;;;;;;;;5082075;28;8928;-71
2022/12/05 07:26:13;;;;;;;;;51.67;41.67;;;;;;;;5082568;28;8840;-76
2022/12/05 07:28:40;;;;;;;;;55.67;44.00;;;;;;;;5078858;28;9697;-74
2022/12/05 07:31:38;;;;;;;;;64.00;48.00;;;;;;;;5086132;28;8867;-75
2022/12/05 07:37:04;;;;;;;;;51.67;43.00;;;;;;;;5084485;28;8869;-74
2022/12/05 07:39:47;;;;;;;;;52.00;43.00;;;;;;;;5084783;28;8853;-75
2022/12/05 07:42:21;;;;;;;;;46.33;42.00;;;;;;;;5085275;28;8875;-75
2022/12/05 07:50:36;;;;;;;;;44.33;41.67;;;;;;;;5086105;28;8876;-74
2022/12/05 07:53:06;;;;;;;;;61.33;45.33;;;;;;;;5085603;28;8852;-74
2022/12/05 07:55:44;;;;;;;;;46.67;44.33;;;;;;;;5086692;28;8880;-75
2022/12/05 07:58:15;;;;;;;;;50.00;42.67;;;;;;;;5083949;28;8856;-75
2022/12/05 08:00:51;;;;;;;;;56.33;45.00;;;;;;;;5084498;28;9211;-75
2022/12/05 08:03:23;;;;;;;;;55.33;47.00;;;;;;;;5082375;28;9329;-75
2022/12/05 08:06:01;;;;;;;;;58.33;48.00;;;;;;;;5085824;28;8824;-75
2022/12/05 08:08:32;;;;;;;;;47.33;42.33;;;;;;;;5083626;28;8921;-75
2022/12/05 08:11:16;;;;;;;;;63.33;46.00;;;;;;;;5083533;28;8856;-71
2022/12/05 08:13:56;;;;;;;;;58.67;46.00;;;;;;;;5080004;28;8849;-72
2022/12/05 08:16:26;;;;;;;;;63.67;47.67;;;;;;;;5083759;28;11589;-73
2022/12/05 08:18:55;;;;;;;;;57.00;44.67;;;;;;;;5077401;28;8855;-70
2022/12/05 08:21:24;;;;;;;;;51.00;36.00;;;;;;;;5083424;28;11593;-71
2022/12/05 08:23:52;;;;;;;;;58.33;50.33;;;;;;;;5080469;28;11543;-73
2022/12/05 08:26:20;;;;;;;;;46.67;43.67;;;;;;;;5078580;28;11543;-73
2022/12/05 08:28:52;;;;;;;;;54.33;42.33;;;;;;;;5084136;28;12297;-70
2022/12/05 08:31:22;;;;;;;;;55.00;46.00;;;;;;;;5082111;28;11569;-69
2022/12/05 08:33:50;;;;;;;;;56.67;44.67;;;;;;;;5083543;28;11554;-73
2022/12/05 08:36:19;;;;;;;;;47.67;40.67;;;;;;;;5081219;28;11675;-71
2022/12/05 08:38:47;;;;;;;;;58.00;48.67;;;;;;;;5078727;28;11547;-71
2022/12/05 08:41:16;;;;;;;;;55.33;45.00;;;;;;;;5078824;28;11558;-70
2022/12/05 08:43:44;;;;;;;;;61.00;47.67;;;;;;;;5074069;28;11542;-69
2022/12/05 08:46:13;;;;;;;;;39.67;35.67;;;;;;;;5080941;28;11712;-69
2022/12/05 08:48:40;;;;;;;;;63.67;45.33;;;;;;;;5079753;28;11655;-71
2022/12/05 08:51:10;;;;;;;;;50.33;43.00;;;;;;;;5077192;28;11704;-70
2022/12/05 08:53:40;;;;;;;;;58.00;44.33;;;;;;;;5081696;28;11584;-71
2022/12/05 08:56:09;;;;;;;;;53.67;44.67;;;;;;;;5079583;28;11567;-71
2022/12/05 08:58:37;;;;;;;;;67.33;48.00;;;;;;;;5080968;28;11575;-71
2022/12/05 09:01:08;;;;;;;;;56.33;42.00;;;;;;;;5081068;28;11562;-70
2022/12/05 09:03:39;;;;;;;;;58.67;40.33;;;;;;;;5080088;28;11585;-70
2022/12/05 09:06:10;;;;;;;;;54.33;44.33;;;;;;;;5080741;28;11574;-70
2022/12/05 09:11:26;;;;;;;;;58.33;44.33;;;;;;;;5074140;28;12538;-71
2022/12/05 09:13:55;;;;;;;;;53.00;42.00;;;;;;;;5077743;28;11710;-71
2022/12/05 09:16:24;;;;;;;;;44.00;39.33;;;;;;;;5078537;28;11557;-71
2022/12/05 09:18:54;;;;;;;;;47.67;41.00;;;;;;;;5078767;28;11562;-72
2022/12/05 09:21:22;;;;;;;;;54.00;42.67;;;;;;;;5078919;28;11548;-72
2022/12/05 09:23:51;;;;;;;;;53.67;44.67;;;;;;;;5078479;28;11626;-70
2022/12/05 09:26:21;;;;;;;;;47.00;40.67;;;;;;;;5081370;28;11575;-72
2022/12/05 09:28:49;;;;;;;;;59.00;42.67;;;;;;;;5080891;28;11588;-71
2022/12/05 09:31:18;;;;;;;;;52.67;44.00;;;;;;;;5080209;28;12400;-70
2022/12/05 09:33:47;;;;;;;;;47.67;40.33;;;;;;;;5081264;28;8860;-71
2022/12/05 09:36:19;;;;;;;;;58.33;46.00;;;;;;;;5077987;28;8839;-72
2022/12/05 09:38:52;;;;;;;;;56.00;46.00;;;;;;;;5078789;28;11558;-72
2022/12/05 09:42:06;;;;;;;;;62.33;48.33;;;;;;;;5080200;28;8880;-71
2022/12/05 09:44:43;;;;;;;;;44.00;39.33;;;;;;;;5079572;28;9695;-73
2022/12/05 09:47:35;;;;;;;;;58.33;45.33;;;;;;;;5080984;28;8970;-73
2022/12/05 09:50:23;;;;;;;;;63.33;44.00;;;;;;;;5080517;28;9001;-70
2022/12/05 09:53:15;;;;;;;;;52.33;44.00;;;;;;;;5083330;28;8848;-71
2022/12/05 09:55:47;;;;;;;;;53.00;43.67;;;;;;;;5078355;28;8857;-72
2022/12/05 09:58:23;;;;;;;;;51.00;43.00;;;;;;;;5079555;28;8872;-75
2022/12/05 10:00:55;;;;;;;;;44.33;31.33;;;;;;;;5082170;28;8844;-73
2022/12/05 10:03:41;;;;;;;;;64.00;50.33;;;;;;;;5082867;28;9006;-76
2022/12/05 10:06:24;;;;;;;;;44.33;42.67;;;;;;;;5083607;28;8854;-72
2022/12/05 10:09:14;;;;;;;;;51.67;44.00;;;;;;;;5079769;28;8875;-78
2022/12/05 10:11:48;;;;;;;;;50.00;43.33;;;;;;;;5072985;28;8840;-75
2022/12/05 10:14:26;;;;;;;;;72.00;51.00;;;;;;;;5083189;28;8974;-73
2022/12/05 10:16:57;;;;;;;;;59.33;50.33;;;;;;;;5078277;28;8872;-73
2022/12/05 10:19:29;;;;;;;;;70.00;55.00;;;;;;;;5081620;28;8868;-72
2022/12/05 10:22:00;;;;;;;;;65.33;50.33;;;;;;;;5094669;28;8843;-73
2022/12/05 10:24:32;;;;;;;;;68.00;56.00;;;;;;;;5082280;28;9006;-72
2022/12/05 10:27:04;;;;;;;;;69.67;57.33;;;;;;;;5081836;28;8860;-72
2022/12/05 10:29:35;;;;;;;;;49.00;42.33;;;;;;;;5081554;28;9625;-73
2022/12/05 10:32:07;;;;;;;;;56.00;40.67;;;;;;;;5081909;28;8929;-73
2022/12/05 10:34:38;;;;;;;;;58.33;43.33;;;;;;;;5082274;28;11572;-72
2022/12/05 10:37:12;;;;;;;;;47.67;43.00;;;;;;;;5081290;28;8987;-72
2022/12/05 10:39:41;;;;;;;;;56.00;46.67;;;;;;;;5081739;28;11622;-73
2022/12/05 10:42:15;;;;;;;;;53.33;45.33;;;;;;;;5082693;28;11545;-72
2022/12/05 10:45:07;;;;;;;;;51.33;46.33;;;;;;;;5082340;28;11519;-72
2022/12/05 10:50:29;;;;;;;;;59.67;46.33;;;;;;;;5081401;28;11570;-72
2022/12/05 10:53:02;;;;;;;;;59.00;45.67;;;;;;;;5076754;28;11581;-73
2022/12/05 10:55:35;;;;;;;;;44.75;40.00;;;;;;;;5083346;28;11592;-72
2022/12/05 10:58:14;;;;;;;;;50.00;40.00;;;;;;;;5083475;28;11544;-72
2022/12/05 11:00:50;;;;;;;;;59.33;47.67;;;;;;;;5083474;28;11656;-72
2022/12/05 11:03:27;;;;;;;;;51.00;41.00;;;;;;;;5081575;28;11591;-72
2022/12/05 11:05:56;;;;;;;;;60.33;47.00;;;;;;;;5082563;28;11562;-72
2022/12/05 11:08:24;;;;;;;;;50.50;42.50;;;;;;;;5077918;28;11583;-71
2022/12/05 11:11:03;;;;;;;;;68.67;54.67;;;;;;;;5082581;28;11583;-74
2022/12/05 11:13:30;;;;;;;;;59.67;48.00;;;;;;;;5081754;28;11536;-73
2022/12/05 11:15:58;;;;;;;;;43.25;38.25;;;;;;;;5084080;28;12511;-73
2022/12/05 11:18:29;;;;;;;;;62.33;52.67;;;;;;;;5057722;28;11582;-71
2022/12/05 11:20:59;;;;;;;;;56.00;45.25;;;;;;;;5084845;28;11779;-74
2022/12/05 11:23:29;;;;;;;;;47.25;39.50;;;;;;;;5081255;28;12349;-75
2022/12/05 11:25:59;;;;;;;;;68.00;54.00;;;;;;;;5086705;28;12425;-73
2022/12/05 11:28:36;;;;;;;;;56.75;46.75;;;;;;;;5082931;28;11739;-71
2022/12/05 11:31:07;;;;;;;;;27.50;27.50;;;;;;;;5084418;28;12367;-72
2022/12/05 11:33:35;;;;;;;;;38.75;35.50;;;;;;;;5081581;28;11542;-73
2022/12/05 11:36:10;;;;;;;;;70.33;54.00;;;;;;;;5078813;28;11583;-72
2022/12/05 11:38:38;;;;;;;;;50.25;43.00;;;;;;;;5079726;28;8867;-73
2022/12/05 11:41:41;;;;;;;;;42.00;40.00;;;;;;;;5077279;28;11591;-74
2022/12/05 11:44:33;;;;;;;;;54.00;44.00;;;;;;;;5079333;28;11583;-74
2022/12/05 11:47:11;;;;;;;;;47.00;39.75;;;;;;;;5083385;28;11544;-75
2022/12/05 11:50:02;;;;;;;;;46.00;42.50;;;;;;;;5079148;28;11767;-74
2022/12/05 11:52:39;;;;;;;;;57.50;48.50;;;;;;;;5078809;28;11571;-73
2022/12/05 11:55:15;;;;;;;;;47.75;43.00;;;;;;;;5075743;28;11564;-71
2022/12/05 11:58:15;;;;;;;;;39.50;34.25;;;;;;;;5081864;28;11725;-72
2022/12/05 12:00:52;;;;;;;;;44.50;39.00;;;;;;;;5082177;28;11569;-73
2022/12/05 12:03:53;;;;;;;;;80.33;63.00;;;;;;;;5081992;28;11543;-73
2022/12/05 12:06:27;;;;;;;;;46.25;41.25;;;;;;;;5048467;28;11651;-71
2022/12/05 12:09:09;;;;;;;;;33.25;32.50;;;;;;;;5081625;28;11655;-74
2022/12/05 12:11:45;;;;;;;;;42.75;32.50;;;;;;;;5074988;28;11599;-72
2022/12/05 12:14:21;;;;;;;;;46.25;38.75;;;;;;;;5081364;28;11582;-73
2022/12/05 12:16:58;;;;;;;;;47.50;38.00;;;;;;;;5081384;28;11524;-73
2022/12/05 12:19:37;;;;;;;;;42.25;37.00;;;;;;;;5080721;28;11527;-76
2022/12/05 12:22:12;;;;;;;;;58.00;46.75;;;;;;;;5072155;28;11588;-75
2022/12/05 12:24:57;;;;;;;;;65.50;50.75;;;;;;;;5077985;28;11555;-74
2022/12/05 12:27:34;;;;;;;;;58.75;49.75;;;;;;;;5084137;28;11579;-73
2022/12/05 12:30:07;;;;;;;;;70.75;54.25;;;;;;;;5080263;28;11551;-78
2022/12/05 12:32:42;;;;;;;;;45.75;35.50;;;;;;;;5077778;28;12574;-74
2022/12/05 12:35:30;;;;;;;;;38.00;32.00;;;;;;;;5078533;28;11562;-77
2022/12/05 12:38:26;;;;;;;;;48.75;41.00;;;;;;;;5077327;28;12371;-76
2022/12/05 12:40:57;;;;;;;;;40.00;38.00;;;;;;;;5054241;28;11533;-75
2022/12/05 12:43:38;;;;;;;;;53.50;47.00;;;;;;;;5071804;28;11554;-76
2022/12/05 12:46:15;;;;;;;;;37.50;31.75;;;;;;;;5078438;28;11550;-76
2022/12/05 12:49:01;;;;;;;;;34.50;32.50;;;;;;;;5081219;28;11622;-78
2022/12/05 12:51:30;;;;;;;;;43.25;35.75;;;;;;;;5069791;28;11569;-77
2022/12/05 12:54:23;;;;;;;;;43.50;38.50;;;;;;;;5079620;28;11571;-78
2022/12/05 12:56:55;;;;;;;;;41.75;36.75;;;;;;;;5069617;28;11570;-76
2022/12/05 12:59:36;;;;;;;;;46.25;40.25;;;;;;;;5077507;28;12415;-76
2022/12/05 13:02:10;;;;;;;;;49.50;42.25;;;;;;;;5078069;28;11590;-78
2022/12/05 13:04:47;;;;;;;;;32.00;31.25;;;;;;;;5070439;28;12358;-73
2022/12/05 13:07:20;;;;;;;;;31.25;30.25;;;;;;;;5078536;28;11559;-76
2022/12/05 13:09:53;;;;;;;;;22.00;17.00;;;;;;;;5079905;28;11577;-78
2022/12/05 13:12:24;;;;;;;;;37.25;31.00;;;;;;;;5081843;28;11664;-75
2022/12/05 13:14:55;;;;;;;;;42.25;36.00;;;;;;;;5083691;28;11575;-76
2022/12/05 13:17:24;;;;;;;;;31.75;28.50;;;;;;;;5077861;28;11627;-75
2022/12/05 13:22:36;;;;;;;;;27.75;25.50;;;;;;;;5078762;28;11712;-74
2022/12/05 13:25:04;;;;;;;;;31.00;28.25;;;;;;;;5075679;28;11539;-74
2022/12/05 13:27:32;;;;;;;;;28.00;25.50;;;;;;;;5078979;28;11696;-73
2022/12/05 13:30:02;;;;;;;;;29.00;27.25;;;;;;;;5079528;28;11589;-74
2022/12/05 13:32:32;;;;;;;;;32.50;25.25;;;;;;;;5073371;28;11563;-73
2022/12/05 13:35:11;;;;;;;;;27.75;25.25;;;;;;;;5075779;28;11554;-74
2022/12/05 13:43:21;;;;;;;;;35.25;31.50;;;;;;;;5074725;28;11006;-73
2022/12/05 13:46:02;;;;;;;;;29.25;29.25;;;;;;;;5075753;28;11639;-73
2022/12/05 13:48:32;;;;;;;;;34.50;27.25;;;;;;;;5077061;28;11014;-74
2022/12/05 13:51:25;;;;;;;;;26.50;24.75;;;;;;;;5077704;28;11010;-73
2022/12/05 13:54:16;;;;;;;;;37.00;27.50;;;;;;;;5083063;28;11534;-74
2022/12/05 13:56:51;;;;;;;;;31.25;30.25;;;;;;;;5071751;28;11589;-76
2022/12/05 13:59:55;;;;;;;;;29.50;24.25;;;;;;;;5078345;28;11562;-76
2022/12/05 14:02:50;;;;;;;;;31.75;27.75;;;;;;;;5079649;28;11553;-76
2022/12/05 14:06:00;;;;;;;;;47.00;42.00;;;;;;;;5074819;28;11522;-75
2022/12/05 14:08:55;;;;;;;;;30.25;27.00;;;;;;;;5081033;28;11671;-80
2022/12/05 14:11:22;;;;;;;;;32.25;30.50;;;;;;;;5079757;28;11565;-74
2022/12/05 14:13:50;;;;;;;;;36.75;30.50;;;;;;;;5073811;28;11588;-74
2022/12/05 14:16:43;;;;;;;;;31.25;29.50;;;;;;;;5081481;28;11577;-75
2022/12/05 14:19:34;;;;;;;;;26.50;24.75;;;;;;;;5080059;28;11548;-75
2022/12/05 14:22:16;;;;;;;;;37.75;36.25;;;;;;;;5076906;28;11601;-76
2022/12/05 14:24:55;;;;;;;;;35.25;32.25;;;;;;;;5073553;28;11851;-75
2022/12/05 14:27:40;;;;;;;;;34.75;33.75;;;;;;;;5080729;28;11640;-75
2022/12/05 14:30:26;;;;;;;;;28.00;26.50;;;;;;;;5081503;28;11563;-76
2022/12/05 14:32:55;;;;;;;;;49.50;42.00;;;;;;;;5079605;28;11580;-76
2022/12/05 14:35:29;;;;;;;;;30.25;26.00;;;;;;;;5081567;28;11513;-76
2022/12/05 14:38:00;;;;;;;;;33.50;33.00;;;;;;;;5081361;28;11543;-74
2022/12/05 14:40:34;;;;;;;;;29.50;28.50;;;;;;;;5069974;28;11713;-76
2022/12/05 14:43:03;;;;;;;;;41.25;30.75;;;;;;;;5077569;28;11533;-75
2022/12/05 14:48:27;;;;;;;;;37.00;30.75;;;;;;;;5070124;28;11555;-76
2022/12/05 14:50:56;;;;;;;;;42.00;37.75;;;;;;;;5081478;28;11673;-75
2022/12/05 14:53:32;;;;;;;;;31.50;29.50;;;;;;;;5081556;28;11640;-74
2022/12/05 14:56:17;;;;;;;;;30.00;30.00;;;;;;;;5085733;28;11576;-75
2022/12/05 14:58:50;;;;;;;;;34.75;33.75;;;;;;;;5084014;28;11610;-76
2022/12/05 15:01:22;;;;;;;;;45.00;36.50;;;;;;;;5077689;28;11546;-76
2022/12/05 15:04:17;;;;;;;;;58.25;46.00;;;;;;;;5085340;28;11557;-75
2022/12/05 15:06:57;;;;;;;;;43.00;37.50;;;;;;;;5078527;28;11551;-78
2022/12/05 15:09:47;;;;;;;;;46.25;40.00;;;;;;;;5083870;28;12464;-75
2022/12/05 15:12:21;;;;;;;;;36.75;32.50;;;;;;;;5084437;28;11593;-74
2022/12/05 15:14:55;;;;;;;;;39.25;35.25;;;;;;;;5083339;28;11542;-74
2022/12/05 15:17:28;;;;;;;;;51.25;41.00;;;;;;;;5082527;28;11667;-73
2022/12/05 15:20:03;;;;;;;;;42.00;36.25;;;;;;;;5086593;28;11676;-74
2022/12/05 15:22:36;;;;;;;;;43.00;40.50;;;;;;;;5080418;28;11576;-74
2022/12/05 15:25:34;;;;;;;;;61.00;51.00;;;;;;;;5081739;28;12445;-74
2022/12/05 15:28:06;;;;;;;;;56.50;44.50;;;;;;;;5082603;28;11557;-74
2022/12/05 15:30:38;;;;;;;;;58.25;48.25;;;;;;;;5081232;28;11725;-71
2022/12/05 15:33:06;;;;;;;;;48.25;41.00;;;;;;;;5083455;28;11706;-72